sensor_id;sensor_type;location;lat;lon;timestamp;temperature;humidity
81140;SHT31;70624;51.978;5.656;2023-08-06T00:01:08;18.1;72.8
81140;SHT31;70624;51.978;5.656;2023-08-06T00:03:37;18.1;73.3
81140;SHT31;70624;51.978;5.656;2023-08-06T00:06:08;18.1;72.9
81140;SHT31;70624;51.978;5.656;2023-08-06T00:08:36;18.1;72.9
81140;SHT31;70624;51.978;5.656;2023-08-06T00:11:05;18.1;73.1
81140;SHT31;70624;51.978;5.656;2023-08-06T00:13:33;18.1;72.9
81140;SHT31;70624;51.978;5.656;2023-08-06T00:16:10;18.0;72.9
81140;SHT31;70624;51.978;5.656;2023-08-06T00:18:39;18.0;72.8
81140;SHT31;70624;51.978;5.656;2023-08-06T00:21:09;18.0;73.5
81140;SHT31;70624;51.978;5.656;2023-08-06T00:23:38;18.0;73.8
81140;SHT31;70624;51.978;5.656;2023-08-06T00:26:07;18.0;73.6
81140;SHT31;70624;51.978;5.656;2023-08-06T00:28:35;18.1;73.6
81140;SHT31;70624;51.978;5.656;2023-08-06T00:31:04;18.1;73.7
81140;SHT31;70624;51.978;5.656;2023-08-06T00:33:32;18.1;73.9
81140;SHT31;70624;51.978;5.656;2023-08-06T00:36:01;18.1;73.5
81140;SHT31;70624;51.978;5.656;2023-08-06T00:38:29;18.1;73.5
81140;SHT31;70624;51.978;5.656;2023-08-06T00:40:58;18.1;73.7
81140;SHT31;70624;51.978;5.656;2023-08-06T00:43:26;18.1;73.4
81140;SHT31;70624;51.978;5.656;2023-08-06T00:45:56;18.1;74.1
81140;SHT31;70624;51.978;5.656;2023-08-06T00:48:24;18.1;74.0
81140;SHT31;70624;51.978;5.656;2023-08-06T00:50:53;18.1;74.4
81140;SHT31;70624;51.978;5.656;2023-08-06T00:53:22;18.0;74.8
81140;SHT31;70624;51.978;5.656;2023-08-06T00:55:51;18.0;75.1
81140;SHT31;70624;51.978;5.656;2023-08-06T00:58:20;18.0;75.0
81140;SHT31;70624;51.978;5.656;2023-08-06T01:00:51;18.0;75.2
81140;SHT31;70624;51.978;5.656;2023-08-06T01:03:19;18.0;75.3
81140;SHT31;70624;51.978;5.656;2023-08-06T01:05:48;17.9;75.5
81140;SHT31;70624;51.978;5.656;2023-08-06T01:08:28;17.9;75.7
81140;SHT31;70624;51.978;5.656;2023-08-06T01:11:07;17.9;75.8
81140;SHT31;70624;51.978;5.656;2023-08-06T01:13:42;17.9;75.7
81140;SHT31;70624;51.978;5.656;2023-08-06T01:16:15;17.9;76.1
81140;SHT31;70624;51.978;5.656;2023-08-06T01:18:44;17.9;76.1
81140;SHT31;70624;51.978;5.656;2023-08-06T01:21:18;17.9;75.8
81140;SHT31;70624;51.978;5.656;2023-08-06T01:23:47;17.9;75.8
81140;SHT31;70624;51.978;5.656;2023-08-06T01:26:29;17.9;76.0
81140;SHT31;70624;51.978;5.656;2023-08-06T01:29:02;17.9;75.8
81140;SHT31;70624;51.978;5.656;2023-08-06T01:31:36;17.9;75.9
81140;SHT31;70624;51.978;5.656;2023-08-06T01:34:09;17.9;75.8
81140;SHT31;70624;51.978;5.656;2023-08-06T01:36:40;17.9;76.1
81140;SHT31;70624;51.978;5.656;2023-08-06T01:39:09;17.9;76.4
81140;SHT31;70624;51.978;5.656;2023-08-06T01:41:37;17.8;76.4
81140;SHT31;70624;51.978;5.656;2023-08-06T01:44:06;17.8;76.4
81140;SHT31;70624;51.978;5.656;2023-08-06T01:46:34;17.8;76.9
81140;SHT31;70624;51.978;5.656;2023-08-06T01:49:03;17.8;76.9
81140;SHT31;70624;51.978;5.656;2023-08-06T01:51:31;17.8;76.8
81140;SHT31;70624;51.978;5.656;2023-08-06T01:54:00;17.8;76.8
81140;SHT31;70624;51.978;5.656;2023-08-06T01:56:30;17.8;76.9
81140;SHT31;70624;51.978;5.656;2023-08-06T01:58:59;17.8;77.1
81140;SHT31;70624;51.978;5.656;2023-08-06T02:01:27;17.8;77.1
81140;SHT31;70624;51.978;5.656;2023-08-06T02:03:58;17.8;76.8
81140;SHT31;70624;51.978;5.656;2023-08-06T02:06:26;17.8;76.8
81140;SHT31;70624;51.978;5.656;2023-08-06T02:08:54;17.8;76.6
81140;SHT31;70624;51.978;5.656;2023-08-06T02:11:23;17.8;76.6
81140;SHT31;70624;51.978;5.656;2023-08-06T02:13:51;17.8;76.8
81140;SHT31;70624;51.978;5.656;2023-08-06T02:16:20;17.8;76.7
81140;SHT31;70624;51.978;5.656;2023-08-06T02:18:49;17.8;76.7
81140;SHT31;70624;51.978;5.656;2023-08-06T02:21:19;17.8;76.9
81140;SHT31;70624;51.978;5.656;2023-08-06T02:23:48;17.8;76.6
81140;SHT31;70624;51.978;5.656;2023-08-06T02:26:16;17.8;76.8
81140;SHT31;70624;51.978;5.656;2023-08-06T02:28:45;17.8;76.8
81140;SHT31;70624;51.978;5.656;2023-08-06T02:31:13;17.8;76.8
81140;SHT31;70624;51.978;5.656;2023-08-06T02:33:41;17.8;76.6
81140;SHT31;70624;51.978;5.656;2023-08-06T02:36:12;17.8;76.5
81140;SHT31;70624;51.978;5.656;2023-08-06T02:41:26;18.2;75.6
81140;SHT31;70624;51.978;5.656;2023-08-06T02:43:54;18.2;75.1
81140;SHT31;70624;51.978;5.656;2023-08-06T02:46:24;18.3;75.1
81140;SHT31;70624;51.978;5.656;2023-08-06T02:48:53;18.3;75.5
81140;SHT31;70624;51.978;5.656;2023-08-06T02:51:21;18.4;74.9
81140;SHT31;70624;51.978;5.656;2023-08-06T02:53:50;18.4;74.7
81140;SHT31;70624;51.978;5.656;2023-08-06T02:56:18;18.5;74.5
81140;SHT31;70624;51.978;5.656;2023-08-06T02:58:47;18.5;73.9
81140;SHT31;70624;51.978;5.656;2023-08-06T03:01:16;18.6;73.9
81140;SHT31;70624;51.978;5.656;2023-08-06T03:03:44;18.6;73.7
81140;SHT31;70624;51.978;5.656;2023-08-06T03:06:12;18.6;73.6
81140;SHT31;70624;51.978;5.656;2023-08-06T03:08:41;18.6;73.6
81140;SHT31;70624;51.978;5.656;2023-08-06T03:11:09;18.6;73.6
81140;SHT31;70624;51.978;5.656;2023-08-06T03:13:38;18.6;73.8
81140;SHT31;70624;51.978;5.656;2023-08-06T03:16:06;18.6;73.6
81140;SHT31;70624;51.978;5.656;2023-08-06T03:18:34;18.6;73.8
81140;SHT31;70624;51.978;5.656;2023-08-06T03:21:03;18.6;73.8
81140;SHT31;70624;51.978;5.656;2023-08-06T03:23:32;18.6;73.8
81140;SHT31;70624;51.978;5.656;2023-08-06T03:26:03;18.6;73.5
81140;SHT31;70624;51.978;5.656;2023-08-06T03:28:31;18.6;73.4
81140;SHT31;70624;51.978;5.656;2023-08-06T03:31:03;18.5;73.9
81140;SHT31;70624;51.978;5.656;2023-08-06T03:33:32;18.5;73.6
81140;SHT31;70624;51.978;5.656;2023-08-06T03:36:00;18.5;73.4
81140;SHT31;70624;51.978;5.656;2023-08-06T03:38:29;18.5;73.9
81140;SHT31;70624;51.978;5.656;2023-08-06T03:40:59;18.5;74.2
81140;SHT31;70624;51.978;5.656;2023-08-06T03:43:28;18.5;73.7
81140;SHT31;70624;51.978;5.656;2023-08-06T03:45:56;18.5;73.8
81140;SHT31;70624;51.978;5.656;2023-08-06T03:48:25;18.5;73.8
81140;SHT31;70624;51.978;5.656;2023-08-06T03:50:53;18.5;73.8
81140;SHT31;70624;51.978;5.656;2023-08-06T03:53:22;18.5;73.8
81140;SHT31;70624;51.978;5.656;2023-08-06T03:55:52;18.5;73.8
81140;SHT31;70624;51.978;5.656;2023-08-06T03:58:22;18.4;73.9
81140;SHT31;70624;51.978;5.656;2023-08-06T04:01:00;18.4;73.8
81140;SHT31;70624;51.978;5.656;2023-08-06T04:03:29;18.4;73.9
81140;SHT31;70624;51.978;5.656;2023-08-06T04:06:00;18.4;74.3
81140;SHT31;70624;51.978;5.656;2023-08-06T04:08:30;18.3;74.5
81140;SHT31;70624;51.978;5.656;2023-08-06T04:10:58;18.3;74.5
81140;SHT31;70624;51.978;5.656;2023-08-06T04:13:27;18.3;74.5
81140;SHT31;70624;51.978;5.656;2023-08-06T04:15:55;18.3;74.2
81140;SHT31;70624;51.978;5.656;2023-08-06T04:18:28;18.3;74.4
81140;SHT31;70624;51.978;5.656;2023-08-06T04:20:57;18.3;74.5
81140;SHT31;70624;51.978;5.656;2023-08-06T04:23:25;18.3;74.7
81140;SHT31;70624;51.978;5.656;2023-08-06T04:25:56;18.3;75.0
81140;SHT31;70624;51.978;5.656;2023-08-06T04:28:24;18.3;75.2
81140;SHT31;70624;51.978;5.656;2023-08-06T04:30:53;18.3;74.9
81140;SHT31;70624;51.978;5.656;2023-08-06T04:33:24;18.3;75.3
81140;SHT31;70624;51.978;5.656;2023-08-06T04:35:55;18.3;75.0
81140;SHT31;70624;51.978;5.656;2023-08-06T04:38:25;18.3;75.0
81140;SHT31;70624;51.978;5.656;2023-08-06T04:40:54;18.3;75.0
81140;SHT31;70624;51.978;5.656;2023-08-06T04:43:22;18.3;75.2
81140;SHT31;70624;51.978;5.656;2023-08-06T04:45:53;18.3;75.2
81140;SHT31;70624;51.978;5.656;2023-08-06T04:48:22;18.3;75.0
81140;SHT31;70624;51.978;5.656;2023-08-06T04:50:51;18.3;74.9
81140;SHT31;70624;51.978;5.656;2023-08-06T04:53:22;18.3;74.6
81140;SHT31;70624;51.978;5.656;2023-08-06T04:55:51;18.3;75.2
81140;SHT31;70624;51.978;5.656;2023-08-06T04:58:19;18.3;75.4
81140;SHT31;70624;51.978;5.656;2023-08-06T05:00:48;18.3;75.7
81140;SHT31;70624;51.978;5.656;2023-08-06T05:03:16;18.3;75.2
81140;SHT31;70624;51.978;5.656;2023-08-06T05:05:46;18.4;75.2
81140;SHT31;70624;51.978;5.656;2023-08-06T05:08:16;18.4;75.0
81140;SHT31;70624;51.978;5.656;2023-08-06T05:10:45;18.4;75.3
81140;SHT31;70624;51.978;5.656;2023-08-06T05:13:14;18.4;75.6
81140;SHT31;70624;51.978;5.656;2023-08-06T05:15:43;18.4;75.2
81140;SHT31;70624;51.978;5.656;2023-08-06T05:18:12;18.4;75.6
81140;SHT31;70624;51.978;5.656;2023-08-06T05:20:42;18.4;75.8
81140;SHT31;70624;51.978;5.656;2023-08-06T05:23:11;18.5;74.8
81140;SHT31;70624;51.978;5.656;2023-08-06T05:25:39;18.5;74.5
81140;SHT31;70624;51.978;5.656;2023-08-06T05:28:08;18.5;74.6
81140;SHT31;70624;51.978;5.656;2023-08-06T05:30:41;18.5;75.3
81140;SHT31;70624;51.978;5.656;2023-08-06T05:33:09;18.5;74.8
81140;SHT31;70624;51.978;5.656;2023-08-06T05:35:38;18.5;75.4
81140;SHT31;70624;51.978;5.656;2023-08-06T05:38:06;18.5;75.5
81140;SHT31;70624;51.978;5.656;2023-08-06T05:40:35;18.6;75.9
81140;SHT31;70624;51.978;5.656;2023-08-06T05:43:05;18.6;75.3
81140;SHT31;70624;51.978;5.656;2023-08-06T05:45:34;18.6;75.7
81140;SHT31;70624;51.978;5.656;2023-08-06T05:48:02;18.7;75.4
81140;SHT31;70624;51.978;5.656;2023-08-06T05:50:31;18.7;74.8
81140;SHT31;70624;51.978;5.656;2023-08-06T05:52:59;18.7;74.6
81140;SHT31;70624;51.978;5.656;2023-08-06T05:55:28;18.8;74.4
81140;SHT31;70624;51.978;5.656;2023-08-06T05:57:57;18.8;73.6
81140;SHT31;70624;51.978;5.656;2023-08-06T06:00:26;18.8;73.7
81140;SHT31;70624;51.978;5.656;2023-08-06T06:02:55;18.8;73.8
81140;SHT31;70624;51.978;5.656;2023-08-06T06:05:24;18.8;73.6
81140;SHT31;70624;51.978;5.656;2023-08-06T06:07:54;18.8;74.5
81140;SHT31;70624;51.978;5.656;2023-08-06T06:10:22;18.8;73.8
81140;SHT31;70624;51.978;5.656;2023-08-06T06:12:51;18.8;74.0
81140;SHT31;70624;51.978;5.656;2023-08-06T06:15:21;18.8;73.7
81140;SHT31;70624;51.978;5.656;2023-08-06T06:17:52;18.8;74.3
81140;SHT31;70624;51.978;5.656;2023-08-06T06:20:20;18.8;73.2
81140;SHT31;70624;51.978;5.656;2023-08-06T06:22:49;18.7;73.3
81140;SHT31;70624;51.978;5.656;2023-08-06T06:25:18;18.7;73.4
81140;SHT31;70624;51.978;5.656;2023-08-06T06:27:46;18.6;74.3
81140;SHT31;70624;51.978;5.656;2023-08-06T06:30:15;18.6;73.8
81140;SHT31;70624;51.978;5.656;2023-08-06T06:32:43;18.5;73.9
81140;SHT31;70624;51.978;5.656;2023-08-06T06:35:12;18.5;74.4
81140;SHT31;70624;51.978;5.656;2023-08-06T06:37:41;18.5;74.7
81140;SHT31;70624;51.978;5.656;2023-08-06T06:40:10;18.5;75.1
81140;SHT31;70624;51.978;5.656;2023-08-06T06:42:38;18.5;75.3
81140;SHT31;70624;51.978;5.656;2023-08-06T06:45:08;18.5;75.0
81140;SHT31;70624;51.978;5.656;2023-08-06T06:47:36;18.6;75.3
81140;SHT31;70624;51.978;5.656;2023-08-06T06:50:05;18.6;75.1
81140;SHT31;70624;51.978;5.656;2023-08-06T06:52:34;18.6;74.7
81140;SHT31;70624;51.978;5.656;2023-08-06T06:55:03;18.7;75.0
81140;SHT31;70624;51.978;5.656;2023-08-06T06:57:32;18.7;74.7
81140;SHT31;70624;51.978;5.656;2023-08-06T07:00:00;18.7;74.8
81140;SHT31;70624;51.978;5.656;2023-08-06T07:02:29;18.7;74.6
81140;SHT31;70624;51.978;5.656;2023-08-06T07:04:57;18.8;74.2
81140;SHT31;70624;51.978;5.656;2023-08-06T07:07:26;18.8;74.8
81140;SHT31;70624;51.978;5.656;2023-08-06T07:09:54;18.8;75.4
81140;SHT31;70624;51.978;5.656;2023-08-06T07:12:23;18.9;75.3
81140;SHT31;70624;51.978;5.656;2023-08-06T07:14:51;18.9;74.7
81140;SHT31;70624;51.978;5.656;2023-08-06T07:17:20;18.9;74.7
81140;SHT31;70624;51.978;5.656;2023-08-06T07:19:48;19.0;74.6
81140;SHT31;70624;51.978;5.656;2023-08-06T07:22:17;19.0;74.5
81140;SHT31;70624;51.978;5.656;2023-08-06T07:24:45;19.1;74.9
81140;SHT31;70624;51.978;5.656;2023-08-06T07:27:14;19.1;74.6
81140;SHT31;70624;51.978;5.656;2023-08-06T07:29:42;19.2;75.3
81140;SHT31;70624;51.978;5.656;2023-08-06T07:32:13;19.2;74.6
81140;SHT31;70624;51.978;5.656;2023-08-06T07:34:43;19.3;74.1
81140;SHT31;70624;51.978;5.656;2023-08-06T07:37:11;19.4;75.0
81140;SHT31;70624;51.978;5.656;2023-08-06T07:39:40;19.4;73.8
81140;SHT31;70624;51.978;5.656;2023-08-06T07:42:10;19.5;73.5
81140;SHT31;70624;51.978;5.656;2023-08-06T07:44:39;19.5;72.5
81140;SHT31;70624;51.978;5.656;2023-08-06T07:47:07;19.5;73.3
81140;SHT31;70624;51.978;5.656;2023-08-06T07:49:36;19.6;73.3
81140;SHT31;70624;51.978;5.656;2023-08-06T07:52:05;19.6;73.5
81140;SHT31;70624;51.978;5.656;2023-08-06T07:54:33;19.6;73.4
81140;SHT31;70624;51.978;5.656;2023-08-06T07:57:02;19.6;73.2
81140;SHT31;70624;51.978;5.656;2023-08-06T07:59:30;19.6;71.4
81140;SHT31;70624;51.978;5.656;2023-08-06T08:01:59;19.6;72.0
81140;SHT31;70624;51.978;5.656;2023-08-06T08:04:28;19.6;71.9
81140;SHT31;70624;51.978;5.656;2023-08-06T08:06:58;19.6;71.5
81140;SHT31;70624;51.978;5.656;2023-08-06T08:09:27;19.6;72.8
81140;SHT31;70624;51.978;5.656;2023-08-06T08:11:56;19.6;72.4
81140;SHT31;70624;51.978;5.656;2023-08-06T08:14:27;19.5;73.4
81140;SHT31;70624;51.978;5.656;2023-08-06T08:16:59;19.5;73.2
81140;SHT31;70624;51.978;5.656;2023-08-06T08:19:28;19.5;73.5
81140;SHT31;70624;51.978;5.656;2023-08-06T08:21:57;19.5;73.3
81140;SHT31;70624;51.978;5.656;2023-08-06T08:24:26;19.6;73.3
81140;SHT31;70624;51.978;5.656;2023-08-06T08:26:56;19.6;73.3
81140;SHT31;70624;51.978;5.656;2023-08-06T08:29:25;19.6;72.9
81140;SHT31;70624;51.978;5.656;2023-08-06T08:31:53;19.6;73.5
81140;SHT31;70624;51.978;5.656;2023-08-06T08:34:21;19.6;72.4
81140;SHT31;70624;51.978;5.656;2023-08-06T08:36:52;19.7;72.8
81140;SHT31;70624;51.978;5.656;2023-08-06T08:39:20;19.6;72.0
81140;SHT31;70624;51.978;5.656;2023-08-06T08:41:51;19.6;71.9
81140;SHT31;70624;51.978;5.656;2023-08-06T08:44:19;19.6;72.6
81140;SHT31;70624;51.978;5.656;2023-08-06T08:46:50;19.6;72.4
81140;SHT31;70624;51.978;5.656;2023-08-06T08:49:21;19.6;72.7
81140;SHT31;70624;51.978;5.656;2023-08-06T08:51:53;19.6;72.8
81140;SHT31;70624;51.978;5.656;2023-08-06T08:54:23;19.5;71.7
81140;SHT31;70624;51.978;5.656;2023-08-06T08:56:52;19.5;72.3
81140;SHT31;70624;51.978;5.656;2023-08-06T08:59:21;19.4;71.8
81140;SHT31;70624;51.978;5.656;2023-08-06T09:01:51;19.2;72.5
81140;SHT31;70624;51.978;5.656;2023-08-06T09:04:20;19.1;72.5
81140;SHT31;70624;51.978;5.656;2023-08-06T09:06:51;19.0;73.6
81140;SHT31;70624;51.978;5.656;2023-08-06T09:09:26;18.9;73.4
81140;SHT31;70624;51.978;5.656;2023-08-06T09:12:01;18.8;73.2
81140;SHT31;70624;51.978;5.656;2023-08-06T09:14:30;18.8;73.2
81140;SHT31;70624;51.978;5.656;2023-08-06T09:17:00;18.7;73.8
81140;SHT31;70624;51.978;5.656;2023-08-06T09:19:32;18.6;73.2
81140;SHT31;70624;51.978;5.656;2023-08-06T09:22:01;18.6;74.1
81140;SHT31;70624;51.978;5.656;2023-08-06T09:24:38;18.5;74.1
81140;SHT31;70624;51.978;5.656;2023-08-06T09:27:10;18.5;73.7
81140;SHT31;70624;51.978;5.656;2023-08-06T09:29:41;18.4;74.2
81140;SHT31;70624;51.978;5.656;2023-08-06T09:32:11;18.4;74.2
81140;SHT31;70624;51.978;5.656;2023-08-06T09:34:42;18.3;74.2
81140;SHT31;70624;51.978;5.656;2023-08-06T09:37:11;18.3;74.1
81140;SHT31;70624;51.978;5.656;2023-08-06T09:39:40;18.3;74.8
81140;SHT31;70624;51.978;5.656;2023-08-06T09:42:09;18.2;74.4
81140;SHT31;70624;51.978;5.656;2023-08-06T09:44:42;18.2;74.6
81140;SHT31;70624;51.978;5.656;2023-08-06T09:47:11;18.2;74.7
81140;SHT31;70624;51.978;5.656;2023-08-06T09:49:45;18.1;75.0
81140;SHT31;70624;51.978;5.656;2023-08-06T09:52:14;18.0;75.7
81140;SHT31;70624;51.978;5.656;2023-08-06T09:54:44;17.9;76.7
81140;SHT31;70624;51.978;5.656;2023-08-06T09:57:14;17.8;77.7
81140;SHT31;70624;51.978;5.656;2023-08-06T09:59:44;17.6;78.8
81140;SHT31;70624;51.978;5.656;2023-08-06T10:02:16;17.4;79.5
81140;SHT31;70624;51.978;5.656;2023-08-06T10:04:46;17.3;80.1
81140;SHT31;70624;51.978;5.656;2023-08-06T10:07:15;17.2;80.8
81140;SHT31;70624;51.978;5.656;2023-08-06T10:09:45;17.1;81.2
81140;SHT31;70624;51.978;5.656;2023-08-06T10:12:15;17.0;81.6
81140;SHT31;70624;51.978;5.656;2023-08-06T10:14:46;17.0;82.4
81140;SHT31;70624;51.978;5.656;2023-08-06T10:17:16;16.9;81.9
81140;SHT31;70624;51.978;5.656;2023-08-06T10:19:46;16.9;82.3
81140;SHT31;70624;51.978;5.656;2023-08-06T10:22:17;16.8;82.8
81140;SHT31;70624;51.978;5.656;2023-08-06T10:24:50;16.8;82.7
81140;SHT31;70624;51.978;5.656;2023-08-06T10:27:28;16.8;83.1
81140;SHT31;70624;51.978;5.656;2023-08-06T10:32:49;16.7;83.5
81140;SHT31;70624;51.978;5.656;2023-08-06T10:35:35;16.7;83.6
81140;SHT31;70624;51.978;5.656;2023-08-06T10:38:08;16.7;83.8
81140;SHT31;70624;51.978;5.656;2023-08-06T10:40:40;16.7;84.4
81140;SHT31;70624;51.978;5.656;2023-08-06T10:43:24;16.6;84.2
81140;SHT31;70624;51.978;5.656;2023-08-06T10:45:53;16.6;84.6
81140;SHT31;70624;51.978;5.656;2023-08-06T10:48:31;16.6;84.7
81140;SHT31;70624;51.978;5.656;2023-08-06T10:51:03;16.6;84.7
81140;SHT31;70624;51.978;5.656;2023-08-06T10:53:32;16.7;84.6
81140;SHT31;70624;51.978;5.656;2023-08-06T10:56:00;16.7;84.7
81140;SHT31;70624;51.978;5.656;2023-08-06T10:58:32;16.7;84.3
81140;SHT31;70624;51.978;5.656;2023-08-06T11:01:01;16.7;84.6
81140;SHT31;70624;51.978;5.656;2023-08-06T11:03:31;16.7;84.1
81140;SHT31;70624;51.978;5.656;2023-08-06T11:06:01;16.7;84.0
81140;SHT31;70624;51.978;5.656;2023-08-06T11:08:37;16.7;83.7
81140;SHT31;70624;51.978;5.656;2023-08-06T11:11:12;16.7;84.3
81140;SHT31;70624;51.978;5.656;2023-08-06T11:13:43;16.7;84.6
81140;SHT31;70624;51.978;5.656;2023-08-06T11:16:13;16.7;83.6
81140;SHT31;70624;51.978;5.656;2023-08-06T11:18:43;16.7;84.7
81140;SHT31;70624;51.978;5.656;2023-08-06T11:21:11;16.7;84.6
81140;SHT31;70624;51.978;5.656;2023-08-06T11:23:40;16.7;84.7
81140;SHT31;70624;51.978;5.656;2023-08-06T11:26:09;16.7;84.5
81140;SHT31;70624;51.978;5.656;2023-08-06T11:28:39;16.7;85.0
81140;SHT31;70624;51.978;5.656;2023-08-06T11:31:20;16.8;84.7
81140;SHT31;70624;51.978;5.656;2023-08-06T11:33:49;16.8;84.7
81140;SHT31;70624;51.978;5.656;2023-08-06T11:36:31;16.8;84.4
81140;SHT31;70624;51.978;5.656;2023-08-06T11:39:01;16.8;84.4
81140;SHT31;70624;51.978;5.656;2023-08-06T11:41:31;16.8;84.1
81140;SHT31;70624;51.978;5.656;2023-08-06T11:44:00;16.8;84.3
81140;SHT31;70624;51.978;5.656;2023-08-06T11:46:29;16.8;84.3
81140;SHT31;70624;51.978;5.656;2023-08-06T11:49:03;16.8;83.6
81140;SHT31;70624;51.978;5.656;2023-08-06T11:51:34;16.8;83.8
81140;SHT31;70624;51.978;5.656;2023-08-06T11:54:03;16.8;84.5
81140;SHT31;70624;51.978;5.656;2023-08-06T11:56:33;16.9;84.9
81140;SHT31;70624;51.978;5.656;2023-08-06T11:59:02;16.9;83.9
81140;SHT31;70624;51.978;5.656;2023-08-06T12:01:32;16.9;83.3
81140;SHT31;70624;51.978;5.656;2023-08-06T12:04:02;16.9;83.2
81140;SHT31;70624;51.978;5.656;2023-08-06T12:06:43;16.9;83.3
81140;SHT31;70624;51.978;5.656;2023-08-06T12:09:11;16.9;83.6
81140;SHT31;70624;51.978;5.656;2023-08-06T12:11:42;16.9;83.6
81140;SHT31;70624;51.978;5.656;2023-08-06T12:14:10;16.9;83.8
81140;SHT31;70624;51.978;5.656;2023-08-06T12:16:40;16.9;83.1
81140;SHT31;70624;51.978;5.656;2023-08-06T12:19:09;16.9;83.9
81140;SHT31;70624;51.978;5.656;2023-08-06T12:21:38;16.9;83.9
81140;SHT31;70624;51.978;5.656;2023-08-06T12:24:08;16.9;84.2
81140;SHT31;70624;51.978;5.656;2023-08-06T12:26:37;17.0;81.6
81140;SHT31;70624;51.978;5.656;2023-08-06T12:29:05;16.9;81.5
81140;SHT31;70624;51.978;5.656;2023-08-06T12:31:33;16.9;80.9
81140;SHT31;70624;51.978;5.656;2023-08-06T12:34:02;16.9;80.6
81140;SHT31;70624;51.978;5.656;2023-08-06T12:36:31;16.8;81.2
81140;SHT31;70624;51.978;5.656;2023-08-06T12:38:59;16.8;82.4
81140;SHT31;70624;51.978;5.656;2023-08-06T12:41:27;16.7;82.7
81140;SHT31;70624;51.978;5.656;2023-08-06T12:43:56;16.7;83.0
81140;SHT31;70624;51.978;5.656;2023-08-06T12:46:24;16.7;83.8
81140;SHT31;70624;51.978;5.656;2023-08-06T12:48:53;16.8;82.9
81140;SHT31;70624;51.978;5.656;2023-08-06T12:51:26;16.8;83.4
81140;SHT31;70624;51.978;5.656;2023-08-06T12:53:54;16.8;83.3
81140;SHT31;70624;51.978;5.656;2023-08-06T12:56:22;16.8;82.9
81140;SHT31;70624;51.978;5.656;2023-08-06T12:58:51;16.8;83.2
81140;SHT31;70624;51.978;5.656;2023-08-06T13:01:19;16.8;83.4
81140;SHT31;70624;51.978;5.656;2023-08-06T13:03:48;16.9;84.0
81140;SHT31;70624;51.978;5.656;2023-08-06T13:06:16;16.9;83.6
81140;SHT31;70624;51.978;5.656;2023-08-06T13:08:45;16.9;83.8
81140;SHT31;70624;51.978;5.656;2023-08-06T13:11:14;16.9;84.5
81140;SHT31;70624;51.978;5.656;2023-08-06T13:13:42;17.0;84.6
81140;SHT31;70624;51.978;5.656;2023-08-06T13:16:11;17.0;83.7
81140;SHT31;70624;51.978;5.656;2023-08-06T13:18:39;17.0;83.7
81140;SHT31;70624;51.978;5.656;2023-08-06T13:21:07;17.1;84.1
81140;SHT31;70624;51.978;5.656;2023-08-06T13:23:36;17.1;84.2
81140;SHT31;70624;51.978;5.656;2023-08-06T13:26:04;17.1;83.5
81140;SHT31;70624;51.978;5.656;2023-08-06T13:28:33;17.2;83.6
81140;SHT31;70624;51.978;5.656;2023-08-06T13:31:02;17.2;84.3
81140;SHT31;70624;51.978;5.656;2023-08-06T13:33:30;17.3;84.4
81140;SHT31;70624;51.978;5.656;2023-08-06T13:35:59;17.3;84.0
81140;SHT31;70624;51.978;5.656;2023-08-06T13:38:27;17.4;84.3
81140;SHT31;70624;51.978;5.656;2023-08-06T13:40:55;17.4;83.7
81140;SHT31;70624;51.978;5.656;2023-08-06T13:43:24;17.5;83.7
81140;SHT31;70624;51.978;5.656;2023-08-06T13:45:52;17.5;83.2
81140;SHT31;70624;51.978;5.656;2023-08-06T13:48:21;17.6;83.2
81140;SHT31;70624;51.978;5.656;2023-08-06T13:50:50;17.6;82.9
81140;SHT31;70624;51.978;5.656;2023-08-06T13:53:18;17.7;82.9
81140;SHT31;70624;51.978;5.656;2023-08-06T13:55:47;17.7;82.5
81140;SHT31;70624;51.978;5.656;2023-08-06T13:58:15;17.8;82.7
81140;SHT31;70624;51.978;5.656;2023-08-06T14:00:43;17.8;82.7
81140;SHT31;70624;51.978;5.656;2023-08-06T14:03:12;17.8;82.2
81140;SHT31;70624;51.978;5.656;2023-08-06T14:05:41;17.9;81.4
81140;SHT31;70624;51.978;5.656;2023-08-06T14:08:09;17.9;81.3
81140;SHT31;70624;51.978;5.656;2023-08-06T14:10:38;17.9;81.2
81140;SHT31;70624;51.978;5.656;2023-08-06T14:13:06;17.9;81.2
81140;SHT31;70624;51.978;5.656;2023-08-06T14:15:35;17.9;80.6
81140;SHT31;70624;51.978;5.656;2023-08-06T14:18:06;17.9;81.7
81140;SHT31;70624;51.978;5.656;2023-08-06T14:20:35;17.9;81.1
81140;SHT31;70624;51.978;5.656;2023-08-06T14:23:03;17.9;80.6
81140;SHT31;70624;51.978;5.656;2023-08-06T14:25:32;17.9;81.3
81140;SHT31;70624;51.978;5.656;2023-08-06T14:28:01;18.0;80.9
81140;SHT31;70624;51.978;5.656;2023-08-06T14:30:30;18.0;80.8
81140;SHT31;70624;51.978;5.656;2023-08-06T14:32:58;18.0;81.0
81140;SHT31;70624;51.978;5.656;2023-08-06T14:35:27;18.0;81.3
81140;SHT31;70624;51.978;5.656;2023-08-06T14:37:56;18.0;81.1
81140;SHT31;70624;51.978;5.656;2023-08-06T14:40:25;18.0;81.5
81140;SHT31;70624;51.978;5.656;2023-08-06T14:42:58;18.1;81.0
81140;SHT31;70624;51.978;5.656;2023-08-06T14:45:28;18.1;81.3
81140;SHT31;70624;51.978;5.656;2023-08-06T14:47:56;18.1;81.2
81140;SHT31;70624;51.978;5.656;2023-08-06T14:50:24;18.1;81.1
81140;SHT31;70624;51.978;5.656;2023-08-06T14:52:53;18.1;81.3
81140;SHT31;70624;51.978;5.656;2023-08-06T14:55:25;18.1;79.9
81140;SHT31;70624;51.978;5.656;2023-08-06T14:57:54;18.1;81.1
81140;SHT31;70624;51.978;5.656;2023-08-06T15:00:22;18.1;80.9
81140;SHT31;70624;51.978;5.656;2023-08-06T15:02:51;18.1;80.8
81140;SHT31;70624;51.978;5.656;2023-08-06T15:05:20;18.1;80.7
81140;SHT31;70624;51.978;5.656;2023-08-06T15:07:48;18.2;80.5
81140;SHT31;70624;51.978;5.656;2023-08-06T15:10:19;18.2;80.2
81140;SHT31;70624;51.978;5.656;2023-08-06T15:12:48;18.2;80.3
81140;SHT31;70624;51.978;5.656;2023-08-06T15:15:17;18.2;80.0
81140;SHT31;70624;51.978;5.656;2023-08-06T15:17:45;18.2;79.8
81140;SHT31;70624;51.978;5.656;2023-08-06T15:20:14;18.2;79.4
81140;SHT31;70624;51.978;5.656;2023-08-06T15:22:42;18.2;79.5
81140;SHT31;70624;51.978;5.656;2023-08-06T15:25:11;18.3;80.0
81140;SHT31;70624;51.978;5.656;2023-08-06T15:27:41;18.3;80.0
81140;SHT31;70624;51.978;5.656;2023-08-06T15:30:10;18.3;79.7
81140;SHT31;70624;51.978;5.656;2023-08-06T15:32:39;18.3;79.0
81140;SHT31;70624;51.978;5.656;2023-08-06T15:35:11;18.3;79.6
81140;SHT31;70624;51.978;5.656;2023-08-06T15:37:40;18.3;80.0
81140;SHT31;70624;51.978;5.656;2023-08-06T15:40:09;18.3;79.3
81140;SHT31;70624;51.978;5.656;2023-08-06T15:42:38;18.4;79.2
81140;SHT31;70624;51.978;5.656;2023-08-06T15:45:09;18.4;78.4
81140;SHT31;70624;51.978;5.656;2023-08-06T15:47:38;18.4;78.1
81140;SHT31;70624;51.978;5.656;2023-08-06T15:50:09;18.3;78.8
81140;SHT31;70624;51.978;5.656;2023-08-06T15:52:39;18.3;78.6
81140;SHT31;70624;51.978;5.656;2023-08-06T15:55:08;18.2;77.9
81140;SHT31;70624;51.978;5.656;2023-08-06T15:57:37;18.2;79.0
81140;SHT31;70624;51.978;5.656;2023-08-06T16:00:06;18.1;79.2
81140;SHT31;70624;51.978;5.656;2023-08-06T16:02:37;18.1;78.6
81140;SHT31;70624;51.978;5.656;2023-08-06T16:05:08;18.1;78.3
81140;SHT31;70624;51.978;5.656;2023-08-06T16:07:37;18.0;78.1
81140;SHT31;70624;51.978;5.656;2023-08-06T16:10:06;18.0;78.6
81140;SHT31;70624;51.978;5.656;2023-08-06T16:12:35;18.0;77.7
81140;SHT31;70624;51.978;5.656;2023-08-06T16:15:04;18.0;77.9
81140;SHT31;70624;51.978;5.656;2023-08-06T16:17:33;18.0;77.2
81140;SHT31;70624;51.978;5.656;2023-08-06T16:20:02;17.9;77.1
81140;SHT31;70624;51.978;5.656;2023-08-06T16:22:33;17.9;77.1